sensor_id;sensor_type;location;lat;lon;timestamp;temperature;humidity
9157;DHT22;4613;48.392;9.998;2023-07-20T00:00:22;22.60;91.10
9157;DHT22;4613;48.392;9.998;2023-07-20T00:03:13;22.50;91.20
9157;DHT22;4613;48.392;9.998;2023-07-20T00:06:07;22.30;91.60
9157;DHT22;4613;48.392;9.998;2023-07-20T00:08:57;22.60;91.20
9157;DHT22;4613;48.392;9.998;2023-07-20T00:11:49;22.40;91.20
9157;DHT22;4613;48.392;9.998;2023-07-20T00:14:42;22.50;91.20
9157;DHT22;4613;48.392;9.998;2023-07-20T00:17:31;22.60;91.10
9157;DHT22;4613;48.392;9.998;2023-07-20T00:20:22;22.70;91.10
9157;DHT22;4613;48.392;9.998;2023-07-20T00:23:12;22.50;91.20
9157;DHT22;4613;48.392;9.998;2023-07-20T00:26:01;22.50;91.40
9157;DHT22;4613;48.392;9.998;2023-07-20T00:28:51;22.60;91.30
9157;DHT22;4613;48.392;9.998;2023-07-20T00:31:42;22.50;91.20
9157;DHT22;4613;48.392;9.998;2023-07-20T00:34:32;22.30;91.30
9157;DHT22;4613;48.392;9.998;2023-07-20T00:37:22;22.20;91.60
9157;DHT22;4613;48.392;9.998;2023-07-20T00:40:12;22.00;91.60
9157;DHT22;4613;48.392;9.998;2023-07-20T00:43:01;22.00;91.80
9157;DHT22;4613;48.392;9.998;2023-07-20T00:45:50;22.10;91.70
9157;DHT22;4613;48.392;9.998;2023-07-20T00:48:41;22.00;91.90
9157;DHT22;4613;48.392;9.998;2023-07-20T00:51:32;22.10;91.90
9157;DHT22;4613;48.392;9.998;2023-07-20T00:54:21;22.10;91.70
9157;DHT22;4613;48.392;9.998;2023-07-20T00:57:12;22.00;91.90
9157;DHT22;4613;48.392;9.998;2023-07-20T01:00:03;22.00;91.90
9157;DHT22;4613;48.392;9.998;2023-07-20T01:02:53;21.70;92.00
9157;DHT22;4613;48.392;9.998;2023-07-20T01:05:56;22.00;92.10
9157;DHT22;4613;48.392;9.998;2023-07-20T01:09:20;21.80;92.50
9157;DHT22;4613;48.392;9.998;2023-07-20T01:12:28;22.00;92.50
9157;DHT22;4613;48.392;9.998;2023-07-20T01:15:19;22.10;92.40
9157;DHT22;4613;48.392;9.998;2023-07-20T01:18:08;21.60;92.40
9157;DHT22;4613;48.392;9.998;2023-07-20T01:21:06;21.70;92.40
9157;DHT22;4613;48.392;9.998;2023-07-20T01:27:23;21.90;92.50
9157;DHT22;4613;48.392;9.998;2023-07-20T01:33:24;21.60;92.50
9157;DHT22;4613;48.392;9.998;2023-07-20T01:36:14;21.50;92.50
9157;DHT22;4613;48.392;9.998;2023-07-20T01:39:06;21.40;92.60
9157;DHT22;4613;48.392;9.998;2023-07-20T01:41:57;21.30;92.60
9157;DHT22;4613;48.392;9.998;2023-07-20T01:44:47;21.30;92.60
9157;DHT22;4613;48.392;9.998;2023-07-20T01:47:36;21.40;92.80
9157;DHT22;4613;48.392;9.998;2023-07-20T01:50:27;20.70;93.00
9157;DHT22;4613;48.392;9.998;2023-07-20T01:53:16;20.80;93.00
9157;DHT22;4613;48.392;9.998;2023-07-20T01:56:05;20.90;93.00
9157;DHT22;4613;48.392;9.998;2023-07-20T01:58:55;21.10;92.90
9157;DHT22;4613;48.392;9.998;2023-07-20T02:01:44;21.00;92.80
9157;DHT22;4613;48.392;9.998;2023-07-20T02:04:34;20.80;92.90
9157;DHT22;4613;48.392;9.998;2023-07-20T02:07:24;20.70;93.00
9157;DHT22;4613;48.392;9.998;2023-07-20T02:10:13;20.80;93.10
9157;DHT22;4613;48.392;9.998;2023-07-20T02:13:03;20.80;93.00
9157;DHT22;4613;48.392;9.998;2023-07-20T02:15:52;20.70;93.10
9157;DHT22;4613;48.392;9.998;2023-07-20T02:18:41;20.60;92.90
9157;DHT22;4613;48.392;9.998;2023-07-20T02:21:30;20.80;92.70
9157;DHT22;4613;48.392;9.998;2023-07-20T02:24:19;20.60;92.60
9157;DHT22;4613;48.392;9.998;2023-07-20T02:27:10;20.80;92.80
9157;DHT22;4613;48.392;9.998;2023-07-20T02:30:00;20.80;92.30
9157;DHT22;4613;48.392;9.998;2023-07-20T02:32:49;20.70;92.40
9157;DHT22;4613;48.392;9.998;2023-07-20T02:35:38;20.50;92.60
9157;DHT22;4613;48.392;9.998;2023-07-20T02:38:27;20.30;92.90
9157;DHT22;4613;48.392;9.998;2023-07-20T02:41:16;20.30;93.00
9157;DHT22;4613;48.392;9.998;2023-07-20T02:44:05;20.10;93.20
9157;DHT22;4613;48.392;9.998;2023-07-20T02:46:56;20.40;92.80
9157;DHT22;4613;48.392;9.998;2023-07-20T02:49:45;20.40;92.90
9157;DHT22;4613;48.392;9.998;2023-07-20T02:52:35;20.30;92.90
9157;DHT22;4613;48.392;9.998;2023-07-20T02:55:24;20.40;92.80
9157;DHT22;4613;48.392;9.998;2023-07-20T02:58:14;20.30;92.90
9157;DHT22;4613;48.392;9.998;2023-07-20T03:01:03;20.50;92.90
9157;DHT22;4613;48.392;9.998;2023-07-20T03:03:52;20.80;94.10
9157;DHT22;4613;48.392;9.998;2023-07-20T03:06:41;20.80;94.10
9157;DHT22;4613;48.392;9.998;2023-07-20T03:09:31;20.80;93.80
9157;DHT22;4613;48.392;9.998;2023-07-20T03:12:21;20.90;93.40
9157;DHT22;4613;48.392;9.998;2023-07-20T03:15:11;20.60;92.90
9157;DHT22;4613;48.392;9.998;2023-07-20T03:18:01;20.50;93.30
9157;DHT22;4613;48.392;9.998;2023-07-20T03:20:51;20.70;93.60
9157;DHT22;4613;48.392;9.998;2023-07-20T03:23:41;20.80;93.40
9157;DHT22;4613;48.392;9.998;2023-07-20T03:26:30;20.80;93.20
9157;DHT22;4613;48.392;9.998;2023-07-20T03:29:20;21.10;93.10
9157;DHT22;4613;48.392;9.998;2023-07-20T03:32:10;21.10;93.20
9157;DHT22;4613;48.392;9.998;2023-07-20T03:35:00;20.70;93.30
9157;DHT22;4613;48.392;9.998;2023-07-20T03:37:49;20.80;93.80
9157;DHT22;4613;48.392;9.998;2023-07-20T03:40:39;21.00;93.50
9157;DHT22;4613;48.392;9.998;2023-07-20T03:43:28;20.70;93.50
9157;DHT22;4613;48.392;9.998;2023-07-20T03:46:18;20.40;93.40
9157;DHT22;4613;48.392;9.998;2023-07-20T03:49:07;20.30;93.80
9157;DHT22;4613;48.392;9.998;2023-07-20T03:51:58;20.30;93.70
9157;DHT22;4613;48.392;9.998;2023-07-20T03:54:47;20.40;93.90
9157;DHT22;4613;48.392;9.998;2023-07-20T03:57:36;20.40;94.00
9157;DHT22;4613;48.392;9.998;2023-07-20T04:00:25;20.20;94.20
9157;DHT22;4613;48.392;9.998;2023-07-20T04:03:15;20.20;94.20
9157;DHT22;4613;48.392;9.998;2023-07-20T04:06:04;20.10;94.70
9157;DHT22;4613;48.392;9.998;2023-07-20T04:09:44;20.10;94.50
9157;DHT22;4613;48.392;9.998;2023-07-20T04:13:03;19.80;95.10
9157;DHT22;4613;48.392;9.998;2023-07-20T04:15:53;19.50;96.00
9157;DHT22;4613;48.392;9.998;2023-07-20T04:18:42;19.60;96.00
9157;DHT22;4613;48.392;9.998;2023-07-20T04:21:31;19.80;96.00
9157;DHT22;4613;48.392;9.998;2023-07-20T04:24:24;20.10;95.80
9157;DHT22;4613;48.392;9.998;2023-07-20T04:27:13;20.20;95.90
9157;DHT22;4613;48.392;9.998;2023-07-20T04:30:06;20.60;95.50
9157;DHT22;4613;48.392;9.998;2023-07-20T04:32:56;20.50;95.00
9157;DHT22;4613;48.392;9.998;2023-07-20T04:35:53;20.50;94.90
9157;DHT22;4613;48.392;9.998;2023-07-20T04:38:47;20.60;94.70
9157;DHT22;4613;48.392;9.998;2023-07-20T04:41:41;20.80;94.70
9157;DHT22;4613;48.392;9.998;2023-07-20T04:44:30;20.60;94.20
9157;DHT22;4613;48.392;9.998;2023-07-20T04:47:19;20.80;94.10
9157;DHT22;4613;48.392;9.998;2023-07-20T04:50:10;20.70;93.90
9157;DHT22;4613;48.392;9.998;2023-07-20T04:53:00;20.80;94.20
9157;DHT22;4613;48.392;9.998;2023-07-20T04:55:51;21.00;94.00
9157;DHT22;4613;48.392;9.998;2023-07-20T04:58:42;21.00;94.00
9157;DHT22;4613;48.392;9.998;2023-07-20T05:01:31;21.00;94.10
9157;DHT22;4613;48.392;9.998;2023-07-20T05:04:20;20.90;93.90
9157;DHT22;4613;48.392;9.998;2023-07-20T05:07:10;21.10;94.00
9157;DHT22;4613;48.392;9.998;2023-07-20T05:09:59;21.20;93.90
9157;DHT22;4613;48.392;9.998;2023-07-20T05:12:48;21.40;93.60
9157;DHT22;4613;48.392;9.998;2023-07-20T05:15:38;21.20;93.60
9157;DHT22;4613;48.392;9.998;2023-07-20T05:18:29;21.20;93.80
9157;DHT22;4613;48.392;9.998;2023-07-20T05:21:19;21.30;93.60
9157;DHT22;4613;48.392;9.998;2023-07-20T05:24:08;21.40;93.50
9157;DHT22;4613;48.392;9.998;2023-07-20T05:26:58;21.10;93.30
9157;DHT22;4613;48.392;9.998;2023-07-20T05:29:47;21.10;93.60
9157;DHT22;4613;48.392;9.998;2023-07-20T05:32:37;21.30;93.20
9157;DHT22;4613;48.392;9.998;2023-07-20T05:35:26;21.40;93.30
9157;DHT22;4613;48.392;9.998;2023-07-20T05:38:16;21.50;93.00
9157;DHT22;4613;48.392;9.998;2023-07-20T05:41:05;21.50;92.90
9157;DHT22;4613;48.392;9.998;2023-07-20T05:43:54;21.50;92.50
9157;DHT22;4613;48.392;9.998;2023-07-20T05:46:43;21.30;92.20
9157;DHT22;4613;48.392;9.998;2023-07-20T05:49:33;21.00;92.30
9157;DHT22;4613;48.392;9.998;2023-07-20T05:52:23;21.40;92.70
9157;DHT22;4613;48.392;9.998;2023-07-20T05:55:12;21.00;92.30
9157;DHT22;4613;48.392;9.998;2023-07-20T05:58:01;20.60;92.50
9157;DHT22;4613;48.392;9.998;2023-07-20T06:00:53;20.70;92.70
9157;DHT22;4613;48.392;9.998;2023-07-20T06:03:42;20.70;92.60
9157;DHT22;4613;48.392;9.998;2023-07-20T06:06:32;20.80;92.70
9157;DHT22;4613;48.392;9.998;2023-07-20T06:09:22;20.60;92.80
9157;DHT22;4613;48.392;9.998;2023-07-20T06:12:14;21.00;92.90
9157;DHT22;4613;48.392;9.998;2023-07-20T06:15:27;20.90;92.70
9157;DHT22;4613;48.392;9.998;2023-07-20T06:18:17;21.20;92.30
9157;DHT22;4613;48.392;9.998;2023-07-20T06:21:06;21.10;92.30
9157;DHT22;4613;48.392;9.998;2023-07-20T06:23:55;21.10;92.30
9157;DHT22;4613;48.392;9.998;2023-07-20T06:26:45;21.00;92.60
9157;DHT22;4613;48.392;9.998;2023-07-20T06:29:34;20.80;92.60
9157;DHT22;4613;48.392;9.998;2023-07-20T06:32:23;20.70;92.90
9157;DHT22;4613;48.392;9.998;2023-07-20T06:35:13;20.80;92.90
9157;DHT22;4613;48.392;9.998;2023-07-20T06:38:03;20.90;93.20
9157;DHT22;4613;48.392;9.998;2023-07-20T06:40:52;20.90;92.80
9157;DHT22;4613;48.392;9.998;2023-07-20T06:43:42;21.20;92.80
9157;DHT22;4613;48.392;9.998;2023-07-20T06:46:32;21.60;92.80
9157;DHT22;4613;48.392;9.998;2023-07-20T06:49:25;21.60;92.70
9157;DHT22;4613;48.392;9.998;2023-07-20T06:52:15;21.80;92.60
9157;DHT22;4613;48.392;9.998;2023-07-20T06:55:05;21.80;92.40
9157;DHT22;4613;48.392;9.998;2023-07-20T06:57:55;21.30;92.50
9157;DHT22;4613;48.392;9.998;2023-07-20T07:00:44;20.90;93.20
9157;DHT22;4613;48.392;9.998;2023-07-20T07:03:33;21.20;93.20
9157;DHT22;4613;48.392;9.998;2023-07-20T07:06:23;20.70;93.00
9157;DHT22;4613;48.392;9.998;2023-07-20T07:09:13;20.90;93.60
9157;DHT22;4613;48.392;9.998;2023-07-20T07:12:02;21.40;93.50
9157;DHT22;4613;48.392;9.998;2023-07-20T07:14:51;21.10;93.40
9157;DHT22;4613;48.392;9.998;2023-07-20T07:17:41;21.30;93.30
9157;DHT22;4613;48.392;9.998;2023-07-20T07:20:32;21.20;93.10
9157;DHT22;4613;48.392;9.998;2023-07-20T07:23:21;20.60;93.70
9157;DHT22;4613;48.392;9.998;2023-07-20T07:26:11;20.30;94.40
9157;DHT22;4613;48.392;9.998;2023-07-20T07:29:01;20.60;94.00
9157;DHT22;4613;48.392;9.998;2023-07-20T07:31:50;21.10;92.80
9157;DHT22;4613;48.392;9.998;2023-07-20T07:34:39;22.10;93.20
9157;DHT22;4613;48.392;9.998;2023-07-20T07:37:28;21.50;92.80
9157;DHT22;4613;48.392;9.998;2023-07-20T07:40:18;20.70;93.80
9157;DHT22;4613;48.392;9.998;2023-07-20T07:43:08;20.40;93.70
9157;DHT22;4613;48.392;9.998;2023-07-20T07:45:58;20.90;94.10
9157;DHT22;4613;48.392;9.998;2023-07-20T07:48:47;21.10;94.00
9157;DHT22;4613;48.392;9.998;2023-07-20T07:51:36;21.60;93.40
9157;DHT22;4613;48.392;9.998;2023-07-20T07:54:25;22.40;92.80
9157;DHT22;4613;48.392;9.998;2023-07-20T07:57:14;22.10;93.00
9157;DHT22;4613;48.392;9.998;2023-07-20T08:00:05;21.80;92.90
9157;DHT22;4613;48.392;9.998;2023-07-20T08:03:00;21.80;93.20
9157;DHT22;4613;48.392;9.998;2023-07-20T08:05:49;21.80;92.50
9157;DHT22;4613;48.392;9.998;2023-07-20T08:08:39;21.60;93.10
9157;DHT22;4613;48.392;9.998;2023-07-20T08:11:28;22.10;93.20
9157;DHT22;4613;48.392;9.998;2023-07-20T08:14:19;23.00;92.40
9157;DHT22;4613;48.392;9.998;2023-07-20T08:17:09;23.40;91.80
9157;DHT22;4613;48.392;9.998;2023-07-20T08:19:58;23.60;91.40
9157;DHT22;4613;48.392;9.998;2023-07-20T08:22:48;23.30;91.40
9157;DHT22;4613;48.392;9.998;2023-07-20T08:25:37;23.30;91.40
9157;DHT22;4613;48.392;9.998;2023-07-20T08:28:28;23.30;91.30
9157;DHT22;4613;48.392;9.998;2023-07-20T08:31:18;23.40;91.50
9157;DHT22;4613;48.392;9.998;2023-07-20T08:34:07;23.20;91.40
9157;DHT22;4613;48.392;9.998;2023-07-20T08:36:57;23.50;91.10
9157;DHT22;4613;48.392;9.998;2023-07-20T08:39:47;23.40;91.10
9157;DHT22;4613;48.392;9.998;2023-07-20T08:42:37;23.80;91.40
9157;DHT22;4613;48.392;9.998;2023-07-20T08:45:28;23.80;91.10
9157;DHT22;4613;48.392;9.998;2023-07-20T08:48:21;23.30;91.40
9157;DHT22;4613;48.392;9.998;2023-07-20T08:51:10;23.70;91.40
9157;DHT22;4613;48.392;9.998;2023-07-20T08:54:00;24.60;90.60
9157;DHT22;4613;48.392;9.998;2023-07-20T08:56:50;24.10;90.60
9157;DHT22;4613;48.392;9.998;2023-07-20T08:59:40;24.40;90.60
9157;DHT22;4613;48.392;9.998;2023-07-20T09:02:31;24.10;90.70
9157;DHT22;4613;48.392;9.998;2023-07-20T09:05:23;24.50;90.50
9157;DHT22;4613;48.392;9.998;2023-07-20T09:08:13;24.00;91.00
9157;DHT22;4613;48.392;9.998;2023-07-20T09:11:02;23.90;90.60
9157;DHT22;4613;48.392;9.998;2023-07-20T09:14:06;23.90;90.60
9157;DHT22;4613;48.392;9.998;2023-07-20T09:16:56;24.60;90.10
9157;DHT22;4613;48.392;9.998;2023-07-20T09:19:46;24.70;89.70
9157;DHT22;4613;48.392;9.998;2023-07-20T09:22:37;24.30;90.20
9157;DHT22;4613;48.392;9.998;2023-07-20T09:25:30;23.70;90.40
9157;DHT22;4613;48.392;9.998;2023-07-20T09:28:19;24.70;90.60
9157;DHT22;4613;48.392;9.998;2023-07-20T09:31:19;24.60;90.10
9157;DHT22;4613;48.392;9.998;2023-07-20T09:34:09;24.50;90.00
9157;DHT22;4613;48.392;9.998;2023-07-20T09:36:59;24.20;90.20
9157;DHT22;4613;48.392;9.998;2023-07-20T09:39:52;24.20;90.10
9157;DHT22;4613;48.392;9.998;2023-07-20T09:42:42;23.90;87.70
9157;DHT22;4613;48.392;9.998;2023-07-20T09:45:41;24.00;85.70
9157;DHT22;4613;48.392;9.998;2023-07-20T09:48:31;24.10;85.00
9157;DHT22;4613;48.392;9.998;2023-07-20T09:51:24;24.70;84.50
9157;DHT22;4613;48.392;9.998;2023-07-20T09:54:13;24.60;83.60
9157;DHT22;4613;48.392;9.998;2023-07-20T09:57:04;24.60;83.50
9157;DHT22;4613;48.392;9.998;2023-07-20T09:59:55;24.60;83.10
9157;DHT22;4613;48.392;9.998;2023-07-20T10:02:49;24.50;82.80
9157;DHT22;4613;48.392;9.998;2023-07-20T10:05:45;24.70;82.50
9157;DHT22;4613;48.392;9.998;2023-07-20T10:08:39;24.70;82.80
9157;DHT22;4613;48.392;9.998;2023-07-20T10:11:31;25.30;82.40
9157;DHT22;4613;48.392;9.998;2023-07-20T10:14:21;25.30;82.10
9157;DHT22;4613;48.392;9.998;2023-07-20T10:17:13;25.60;82.50
9157;DHT22;4613;48.392;9.998;2023-07-20T10:20:04;25.70;81.40
9157;DHT22;4613;48.392;9.998;2023-07-20T10:22:55;25.60;81.60
9157;DHT22;4613;48.392;9.998;2023-07-20T10:25:46;25.60;84.50
9157;DHT22;4613;48.392;9.998;2023-07-20T10:28:36;25.50;80.50
9157;DHT22;4613;48.392;9.998;2023-07-20T10:31:28;25.70;81.20
9157;DHT22;4613;48.392;9.998;2023-07-20T10:34:17;25.80;79.90
9157;DHT22;4613;48.392;9.998;2023-07-20T10:37:07;25.50;80.00
9157;DHT22;4613;48.392;9.998;2023-07-20T10:39:57;25.30;80.40
9157;DHT22;4613;48.392;9.998;2023-07-20T10:42:47;25.70;82.30
9157;DHT22;4613;48.392;9.998;2023-07-20T10:45:40;25.80;79.50
9157;DHT22;4613;48.392;9.998;2023-07-20T10:48:33;25.00;81.00
9157;DHT22;4613;48.392;9.998;2023-07-20T10:51:23;25.20;80.80
9157;DHT22;4613;48.392;9.998;2023-07-20T10:57:23;25.40;79.50
9157;DHT22;4613;48.392;9.998;2023-07-20T11:00:13;25.80;80.30
9157;DHT22;4613;48.392;9.998;2023-07-20T11:03:04;26.10;80.60
9157;DHT22;4613;48.392;9.998;2023-07-20T11:05:53;26.20;79.60
9157;DHT22;4613;48.392;9.998;2023-07-20T11:08:43;26.10;78.70
9157;DHT22;4613;48.392;9.998;2023-07-20T11:11:37;25.90;78.10
9157;DHT22;4613;48.392;9.998;2023-07-20T11:14:26;26.20;78.90
9157;DHT22;4613;48.392;9.998;2023-07-20T11:17:16;26.20;78.00
9157;DHT22;4613;48.392;9.998;2023-07-20T11:20:11;26.30;77.20
9157;DHT22;4613;48.392;9.998;2023-07-20T11:23:02;26.30;77.30
9157;DHT22;4613;48.392;9.998;2023-07-20T11:25:52;26.20;77.50
9157;DHT22;4613;48.392;9.998;2023-07-20T11:28:41;26.50;77.30
9157;DHT22;4613;48.392;9.998;2023-07-20T11:31:35;26.50;77.10
9157;DHT22;4613;48.392;9.998;2023-07-20T11:34:25;26.20;78.20
9157;DHT22;4613;48.392;9.998;2023-07-20T11:37:14;26.10;77.80
9157;DHT22;4613;48.392;9.998;2023-07-20T11:40:04;26.30;79.50
9157;DHT22;4613;48.392;9.998;2023-07-20T11:42:54;26.40;79.20
9157;DHT22;4613;48.392;9.998;2023-07-20T11:45:44;26.20;77.40
9157;DHT22;4613;48.392;9.998;2023-07-20T11:48:33;26.60;78.40
9157;DHT22;4613;48.392;9.998;2023-07-20T11:51:23;26.60;77.20
9157;DHT22;4613;48.392;9.998;2023-07-20T11:54:13;26.40;74.40
9157;DHT22;4613;48.392;9.998;2023-07-20T11:57:03;26.30;74.70
9157;DHT22;4613;48.392;9.998;2023-07-20T12:00:03;25.70;74.60
9157;DHT22;4613;48.392;9.998;2023-07-20T12:03:00;26.10;75.70
9157;DHT22;4613;48.392;9.998;2023-07-20T12:05:50;26.20;75.20
9157;DHT22;4613;48.392;9.998;2023-07-20T12:08:41;26.20;74.90
9157;DHT22;4613;48.392;9.998;2023-07-20T12:11:35;26.30;76.80
9157;DHT22;4613;48.392;9.998;2023-07-20T12:14:25;26.50;75.40
9157;DHT22;4613;48.392;9.998;2023-07-20T12:17:14;26.30;75.60
9157;DHT22;4613;48.392;9.998;2023-07-20T12:20:04;26.40;75.90
9157;DHT22;4613;48.392;9.998;2023-07-20T12:23:08;26.60;75.80
9157;DHT22;4613;48.392;9.998;2023-07-20T12:25:58;26.60;76.10
9157;DHT22;4613;48.392;9.998;2023-07-20T12:28:47;26.40;75.20
9157;DHT22;4613;48.392;9.998;2023-07-20T12:31:37;26.20;76.30
9157;DHT22;4613;48.392;9.998;2023-07-20T12:34:27;26.00;75.60
9157;DHT22;4613;48.392;9.998;2023-07-20T12:37:18;26.20;76.10
9157;DHT22;4613;48.392;9.998;2023-07-20T12:40:07;26.10;75.50
9157;DHT22;4613;48.392;9.998;2023-07-20T12:42:59;26.00;75.70
9157;DHT22;4613;48.392;9.998;2023-07-20T12:45:49;25.90;76.10
9157;DHT22;4613;48.392;9.998;2023-07-20T12:48:38;25.90;75.70
9157;DHT22;4613;48.392;9.998;2023-07-20T12:51:30;26.20;75.60
9157;DHT22;4613;48.392;9.998;2023-07-20T12:54:19;26.20;76.30
9157;DHT22;4613;48.392;9.998;2023-07-20T12:57:08;26.30;75.90
9157;DHT22;4613;48.392;9.998;2023-07-20T12:59:58;26.30;75.50
9157;DHT22;4613;48.392;9.998;2023-07-20T13:02:47;26.40;75.90
9157;DHT22;4613;48.392;9.998;2023-07-20T13:05:36;26.00;74.40
9157;DHT22;4613;48.392;9.998;2023-07-20T13:08:26;25.50;75.10
9157;DHT22;4613;48.392;9.998;2023-07-20T13:11:16;25.20;75.90
9157;DHT22;4613;48.392;9.998;2023-07-20T13:14:05;25.80;76.00
9157;DHT22;4613;48.392;9.998;2023-07-20T13:16:54;25.90;74.80
9157;DHT22;4613;48.392;9.998;2023-07-20T13:19:43;26.10;75.20
9157;DHT22;4613;48.392;9.998;2023-07-20T13:22:32;26.20;74.30
9157;DHT22;4613;48.392;9.998;2023-07-20T13:25:21;25.90;74.30
9157;DHT22;4613;48.392;9.998;2023-07-20T13:28:11;26.00;74.50
9157;DHT22;4613;48.392;9.998;2023-07-20T13:31:00;26.10;74.90
9157;DHT22;4613;48.392;9.998;2023-07-20T13:33:50;25.70;74.20
9157;DHT22;4613;48.392;9.998;2023-07-20T13:36:40;25.70;75.40
9157;DHT22;4613;48.392;9.998;2023-07-20T13:39:29;25.70;74.80
9157;DHT22;4613;48.392;9.998;2023-07-20T13:42:19;26.00;74.20
9157;DHT22;4613;48.392;9.998;2023-07-20T13:45:09;26.20;74.00
9157;DHT22;4613;48.392;9.998;2023-07-20T13:47:59;26.40;74.40
9157;DHT22;4613;48.392;9.998;2023-07-20T13:50:48;26.40;74.70
9157;DHT22;4613;48.392;9.998;2023-07-20T13:53:38;25.90;74.40
9157;DHT22;4613;48.392;9.998;2023-07-20T13:56:27;25.80;74.10
9157;DHT22;4613;48.392;9.998;2023-07-20T13:59:18;26.00;75.10
9157;DHT22;4613;48.392;9.998;2023-07-20T14:02:07;26.20;74.20
9157;DHT22;4613;48.392;9.998;2023-07-20T14:04:57;26.30;74.30
9157;DHT22;4613;48.392;9.998;2023-07-20T14:07:46;26.30;73.90
9157;DHT22;4613;48.392;9.998;2023-07-20T14:10:36;26.30;74.30
9157;DHT22;4613;48.392;9.998;2023-07-20T14:13:26;26.40;73.80
9157;DHT22;4613;48.392;9.998;2023-07-20T14:16:15;26.30;74.10
9157;DHT22;4613;48.392;9.998;2023-07-20T14:19:04;26.30;74.60
9157;DHT22;4613;48.392;9.998;2023-07-20T14:21:54;26.50;74.10
9157;DHT22;4613;48.392;9.998;2023-07-20T14:24:44;26.70;73.50
9157;DHT22;4613;48.392;9.998;2023-07-20T14:27:33;26.90;73.10
9157;DHT22;4613;48.392;9.998;2023-07-20T14:30:22;26.60;73.30
9157;DHT22;4613;48.392;9.998;2023-07-20T14:33:12;26.40;72.90
9157;DHT22;4613;48.392;9.998;2023-07-20T14:36:02;25.60;73.10
9157;DHT22;4613;48.392;9.998;2023-07-20T14:38:51;26.10;73.30
9157;DHT22;4613;48.392;9.998;2023-07-20T14:41:41;26.10;72.80
9157;DHT22;4613;48.392;9.998;2023-07-20T14:44:30;26.10;72.40
9157;DHT22;4613;48.392;9.998;2023-07-20T14:47:19;26.40;72.90
9157;DHT22;4613;48.392;9.998;2023-07-20T14:50:09;26.40;73.90
9157;DHT22;4613;48.392;9.998;2023-07-20T14:52:58;26.50;73.80
9157;DHT22;4613;48.392;9.998;2023-07-20T14:55:47;26.50;73.10
9157;DHT22;4613;48.392;9.998;2023-07-20T14:58:36;26.80;72.60
9157;DHT22;4613;48.392;9.998;2023-07-20T15:01:26;26.80;72.90
9157;DHT22;4613;48.392;9.998;2023-07-20T15:04:15;26.70;72.60
9157;DHT22;4613;48.392;9.998;2023-07-20T15:07:05;26.50;72.20
9157;DHT22;4613;48.392;9.998;2023-07-20T15:09:54;26.70;72.00
9157;DHT22;4613;48.392;9.998;2023-07-20T15:12:43;26.60;71.70
9157;DHT22;4613;48.392;9.998;2023-07-20T15:15:34;26.50;72.90
9157;DHT22;4613;48.392;9.998;2023-07-20T15:18:23;26.70;71.80
9157;DHT22;4613;48.392;9.998;2023-07-20T15:21:13;26.70;72.10
9157;DHT22;4613;48.392;9.998;2023-07-20T15:24:02;26.80;71.60
9157;DHT22;4613;48.392;9.998;2023-07-20T15:26:52;26.50;71.80
9157;DHT22;4613;48.392;9.998;2023-07-20T15:29:41;26.10;71.40
9157;DHT22;4613;48.392;9.998;2023-07-20T15:32:30;25.90;71.40
9157;DHT22;4613;48.392;9.998;2023-07-20T15:35:19;25.80;72.20
9157;DHT22;4613;48.392;9.998;2023-07-20T15:38:08;26.00;72.70
9157;DHT22;4613;48.392;9.998;2023-07-20T15:40:58;26.20;73.40
9157;DHT22;4613;48.392;9.998;2023-07-20T15:43:49;26.50;72.70
9157;DHT22;4613;48.392;9.998;2023-07-20T15:49:31;26.60;71.00
9157;DHT22;4613;48.392;9.998;2023-07-20T15:52:22;26.70;71.30
9157;DHT22;4613;48.392;9.998;2023-07-20T15:55:12;26.80;72.00
9157;DHT22;4613;48.392;9.998;2023-07-20T15:58:02;26.80;71.60
9157;DHT22;4613;48.392;9.998;2023-07-20T16:00:55;26.60;71.70
9157;DHT22;4613;48.392;9.998;2023-07-20T16:03:44;26.20;71.80
9157;DHT22;4613;48.392;9.998;2023-07-20T16:06:34;26.10;72.80
9157;DHT22;4613;48.392;9.998;2023-07-20T16:09:24;26.10;72.50
9157;DHT22;4613;48.392;9.998;2023-07-20T16:12:14;25.90;73.00
9157;DHT22;4613;48.392;9.998;2023-07-20T16:15:03;25.90;72.60
9157;DHT22;4613;48.392;9.998;2023-07-20T16:17:52;26.10;72.00
9157;DHT22;4613;48.392;9.998;2023-07-20T16:20:41;26.30;72.50
9157;DHT22;4613;48.392;9.998;2023-07-20T16:23:31;26.40;71.60
9157;DHT22;4613;48.392;9.998;2023-07-20T16:26:20;26.30;71.90
9157;DHT22;4613;48.392;9.998;2023-07-20T16:29:10;26.30;71.70
9157;DHT22;4613;48.392;9.998;2023-07-20T16:31:59;26.10;71.50
9157;DHT22;4613;48.392;9.998;2023-07-20T16:34:49;25.80;72.20
9157;DHT22;4613;48.392;9.998;2023-07-20T16:37:38;25.80;72.20
9157;DHT22;4613;48.392;9.998;2023-07-20T16:40:27;25.90;71.90
9157;DHT22;4613;48.392;9.998;2023-07-20T16:43:16;25.90;72.80
9157;DHT22;4613;48.392;9.998;2023-07-20T16:46:07;25.90;72.90
9157;DHT22;4613;48.392;9.998;2023-07-20T16:48:57;25.80;72.70
9157;DHT22;4613;48.392;9.998;2023-07-20T16:51:48;25.70;72.40
9157;DHT22;4613;48.392;9.998;2023-07-20T16:54:37;25.80;73.30
9157;DHT22;4613;48.392;9.998;2023-07-20T16:57:27;25.80;72.60
9157;DHT22;4613;48.392;9.998;2023-07-20T17:00:17;25.80;72.40
9157;DHT22;4613;48.392;9.998;2023-07-20T17:03:06;25.80;72.70
9157;DHT22;4613;48.392;9.998;2023-07-20T17:05:55;25.70;72.60
9157;DHT22;4613;48.392;9.998;2023-07-20T17:08:45;25.70;74.40
9157;DHT22;4613;48.392;9.998;2023-07-20T17:11:34;25.70;73.30
9157;DHT22;4613;48.392;9.998;2023-07-20T17:14:23;25.60;73.90
9157;DHT22;4613;48.392;9.998;2023-07-20T17:17:13;25.60;74.80
9157;DHT22;4613;48.392;9.998;2023-07-20T17:20:03;25.60;73.50
9157;DHT22;4613;48.392;9.998;2023-07-20T17:22:54;25.40;73.50
9157;DHT22;4613;48.392;9.998;2023-07-20T17:25:45;25.30;73.60
9157;DHT22;4613;48.392;9.998;2023-07-20T17:28:35;25.30;74.00
9157;DHT22;4613;48.392;9.998;2023-07-20T17:31:24;25.30;74.00
9157;DHT22;4613;48.392;9.998;2023-07-20T17:34:17;25.20;73.70
9157;DHT22;4613;48.392;9.998;2023-07-20T17:37:06;25.30;73.70
9157;DHT22;4613;48.392;9.998;2023-07-20T17:39:55;25.40;74.40
9157;DHT22;4613;48.392;9.998;2023-07-20T17:42:45;25.20;73.40
9157;DHT22;4613;48.392;9.998;2023-07-20T17:45:35;25.10;74.10
9157;DHT22;4613;48.392;9.998;2023-07-20T17:48:24;25.10;74.00
9157;DHT22;4613;48.392;9.998;2023-07-20T17:51:14;25.20;73.60
9157;DHT22;4613;48.392;9.998;2023-07-20T17:54:04;25.20;74.80
9157;DHT22;4613;48.392;9.998;2023-07-20T17:56:53;25.20;74.30
9157;DHT22;4613;48.392;9.998;2023-07-20T17:59:43;25.00;75.30
9157;DHT22;4613;48.392;9.998;2023-07-20T18:02:32;25.10;73.50
9157;DHT22;4613;48.392;9.998;2023-07-20T18:05:23;25.00;73.40
9157;DHT22;4613;48.392;9.998;2023-07-20T18:08:12;24.90;74.00
9157;DHT22;4613;48.392;9.998;2023-07-20T18:11:06;24.90;74.10
9157;DHT22;4613;48.392;9.998;2023-07-20T18:13:55;24.90;73.90
9157;DHT22;4613;48.392;9.998;2023-07-20T18:16:46;24.90;75.50
9157;DHT22;4613;48.392;9.998;2023-07-20T18:19:36;24.80;74.00
9157;DHT22;4613;48.392;9.998;2023-07-20T18:22:25;24.70;74.00
9157;DHT22;4613;48.392;9.998;2023-07-20T18:25:15;24.70;74.40
9157;DHT22;4613;48.392;9.998;2023-07-20T18:28:04;24.80;75.00
9157;DHT22;4613;48.392;9.998;2023-07-20T18:30:54;24.70;74.60
9157;DHT22;4613;48.392;9.998;2023-07-20T18:33:43;24.50;74.60
9157;DHT22;4613;48.392;9.998;2023-07-20T18:36:33;24.60;74.70
9157;DHT22;4613;48.392;9.998;2023-07-20T18:39:22;24.60;74.70
9157;DHT22;4613;48.392;9.998;2023-07-20T18:42:12;24.60;75.10
9157;DHT22;4613;48.392;9.998;2023-07-20T18:45:02;24.50;75.00